This is the latest recevied weather packets stored in our database for station/object SV9TNF-52. If no packets are shown the sender has not sent any weather packets the latest 10 day(s).
| Time | Temp. | Humidity | Pressure | Rain* | Wind** | Luminosity | Snow |
|---|---|---|---|---|---|---|---|
| 1788340421 | 32.78° C | 49% | 1020.7 hPa | 0 mm | 5.36 m/s, 247° | - | - |
| 1788340121 | 32.78° C | 49% | 1020.7 hPa | 0 mm | 4.92 m/s, 27° | - | - |
| 1788339821 | 32.78° C | 49% | 1020.7 hPa | 0 mm | 3.58 m/s, 244° | - | - |
| 1788339521 | 32.78° C | 49% | 1020.3 hPa | 0 mm | 2.68 m/s, 250° | - | - |
| 1788339221 | 31.67° C | 51% | 1020.3 hPa | 0 mm | 3.13 m/s, 248° | - | - |
| 1788338921 | 31.67° C | 52% | 1020.7 hPa | 0 mm | 3.13 m/s, 298° | - | - |
| 1788338621 | 31.67° C | 52% | 1020.7 hPa | 0 mm | 3.58 m/s, 345° | - | - |
| 1788338321 | 31.67° C | 52% | 1020.7 hPa | 0 mm | 4.47 m/s, 279° | - | - |
| 1788338020 | 31.11° C | 53% | 1020.7 hPa | 0 mm | 6.26 m/s, 359° | - | - |
| 1788337720 | 31.67° C | 52% | 1020.7 hPa | 0 mm | 3.13 m/s, 36° | - | - |
| 1788337420 | 31.67° C | 51% | 1020.7 hPa | 0 mm | 5.81 m/s, 332° | - | - |
| 1788337120 | 31.67° C | 51% | 1020.7 hPa | 0 mm | 4.02 m/s, 260° | - | - |
| 1788336820 | 31.67° C | 51% | 1020.7 hPa | 0 mm | 3.58 m/s, 272° | - | - |
| 1788336520 | 31.67° C | 50% | 1020.3 hPa | 0 mm | 4.92 m/s, 255° | - | - |
| 1788336219 | 31.67° C | 51% | 1020.3 hPa | 0 mm | 4.02 m/s, 324° | - | - |
| 1788335919 | 32.22° C | 48% | 1020.3 hPa | 0 mm | 3.58 m/s, 239° | - | - |
| 1788335619 | 32.22° C | 48% | 1020.3 hPa | 0 mm | 3.13 m/s, 335° | - | - |
| 1788335320 | 32.22° C | 51% | 1020.3 hPa | 0 mm | 3.58 m/s, 280° | - | - |
| 1788335019 | 31.67° C | 53% | 1020.3 hPa | 0 mm | 3.13 m/s, 276° | - | - |
| 1788334719 | 31.67° C | 53% | 1020.3 hPa | 0 mm | 5.36 m/s, 264° | - | - |
| 1788334419 | 31.67° C | 53% | 1020.3 hPa | 0 mm | 3.13 m/s, 263° | - | - |
| 1788334119 | 31.67° C | 52% | 1020.3 hPa | 0 mm | 3.58 m/s, 258° | - | - |
| 1788333819 | 31.67° C | 53% | 1020.3 hPa | 0 mm | 4.92 m/s, 279° | - | - |
| 1788333519 | 31.67° C | 54% | 1020.3 hPa | 0 mm | 4.02 m/s, 267° | - | - |
| 1788333219 | 31.11° C | 56% | 1020.3 hPa | 0 mm | 1.79 m/s, 247° | - | - |
* Rain latest hour (hover to see other rain measurements)
** Current wind speed in m/s (hover to see current wind gust speed)